• vieta
  • image
  • image
  • image
mod_vvisit_countermod_vvisit_countermod_vvisit_countermod_vvisit_countermod_vvisit_countermod_vvisit_counter
mod_vvisit_counterŠiandien26
mod_vvisit_counterVakar824
mod_vvisit_counterŠią savaitę850
mod_vvisit_counterPraėjusią savaitę7375
mod_vvisit_counterŠį mėnesį20603
mod_vvisit_counterPraėjusį mėnesį22413
mod_vvisit_counterViso851244

Mes turime: 19 svečius online
Jūsų IP: 54.221.17.234
 , 
Šiandien: Vas 26, 2018
Oro uostas / Įmonė

Apie įmonę

 

Savivaldybės įmonė Šiaulių oro uostas.

2003 m. lapkričio mėn. Šiaulių miesto savivaldybės tarybos sprendimu įsteigta Savivaldybės įmonė Šiaulių oro uostas, kuriai LR Vyriausybės nutarimu suteikta teisė aptarnauti civilinį susisiekimą kariniame Šiaulių aerodrome.

Įmonė yra ribotos civilinės atsakomybės viešasis juridinis asmuo.

Įmonės pagrindinė veikla – oro uosto eksploatavimas ir oro transporto paslaugos.

Svarbiausi veiklos uždaviniai – teikti viešąsias keleivių ir krovinių vežimo oro transportu paslaugas.

Įmonėje dirba 21 darbuotojas.


Įmonės struktūra:

 

Šiandien

Pirmadienis, 26 Vasaris 2018

Orų prognozė aviacijai

[source: ADDS]
METAR
EYSA 252250Z 30004KT 5000 NSC M20/M22 Q1031 R32R/29//95 R32L/990191 WHT NOSIG =
TAF
TAF EYSA 252301Z 2600/2609 VRB05KT 7000 BKN025 TEMPO 2600/2603 3000 BR SCT005 TEMPO 2603/2606 3000 SN BR BKN005 =
SR / SS: 05:23 / 15:57 UTC (EYSA 2018-02-26)

Paieška

Lankytojai

Mes turime 19 svečius online

tic logo lt